sensor_id;sensor_type;location;lat;lon;timestamp;pressure;altitude;pressure_sealevel;temperature;humidity
61488;BME280;47351;53.326;-6.298;2023-01-30T00:01:37;102134.59;;;6.25;81.08
61488;BME280;47351;53.326;-6.298;2023-01-30T00:04:27;102128.56;;;6.22;80.94
61488;BME280;47351;53.326;-6.298;2023-01-30T00:07:18;102122.73;;;6.16;80.89
61488;BME280;47351;53.326;-6.298;2023-01-30T00:10:10;102122.60;;;6.10;81.03
61488;BME280;47351;53.326;-6.298;2023-01-30T00:13:00;102117.98;;;6.04;81.25
61488;BME280;47351;53.326;-6.298;2023-01-30T00:15:51;102117.58;;;5.99;81.27
61488;BME280;47351;53.326;-6.298;2023-01-30T00:18:42;102128.84;;;5.95;81.42
61488;BME280;47351;53.326;-6.298;2023-01-30T00:21:32;102127.00;;;5.90;81.49
61488;BME280;47351;53.326;-6.298;2023-01-30T00:24:23;102128.88;;;5.85;81.63
61488;BME280;47351;53.326;-6.298;2023-01-30T00:27:14;102127.20;;;5.80;81.72
61488;BME280;47351;53.326;-6.298;2023-01-30T00:30:05;102125.80;;;5.77;81.78
61488;BME280;47351;53.326;-6.298;2023-01-30T00:32:56;102131.44;;;5.78;81.82
61488;BME280;47351;53.326;-6.298;2023-01-30T00:35:47;102131.58;;;5.81;81.69
61488;BME280;47351;53.326;-6.298;2023-01-30T00:38:38;102136.14;;;5.85;81.59
61488;BME280;47351;53.326;-6.298;2023-01-30T00:41:28;102133.41;;;5.89;81.25
61488;BME280;47351;53.326;-6.298;2023-01-30T00:44:39;102137.11;;;5.93;81.08
61488;BME280;47351;53.326;-6.298;2023-01-30T00:47:48;102139.63;;;5.95;80.87
61488;BME280;47351;53.326;-6.298;2023-01-30T00:50:40;102140.58;;;5.97;80.72
61488;BME280;47351;53.326;-6.298;2023-01-30T00:53:33;102136.03;;;5.96;80.59
61488;BME280;47351;53.326;-6.298;2023-01-30T00:56:23;102133.36;;;5.93;80.40
61488;BME280;47351;53.326;-6.298;2023-01-30T00:59:14;102126.63;;;5.90;80.25
61488;BME280;47351;53.326;-6.298;2023-01-30T01:02:06;102121.85;;;5.86;80.18
61488;BME280;47351;53.326;-6.298;2023-01-30T01:04:56;102127.02;;;5.83;80.24
61488;BME280;47351;53.326;-6.298;2023-01-30T01:07:48;102135.93;;;5.82;80.17
61488;BME280;47351;53.326;-6.298;2023-01-30T01:10:38;102131.88;;;5.85;80.20
61488;BME280;47351;53.326;-6.298;2023-01-30T01:13:28;102138.10;;;5.88;80.17
61488;BME280;47351;53.326;-6.298;2023-01-30T01:16:19;102135.88;;;5.89;80.07
61488;BME280;47351;53.326;-6.298;2023-01-30T01:19:09;102139.52;;;5.91;79.97
61488;BME280;47351;53.326;-6.298;2023-01-30T01:22:01;102138.27;;;5.94;79.73
61488;BME280;47351;53.326;-6.298;2023-01-30T01:24:52;102145.70;;;5.97;79.58
61488;BME280;47351;53.326;-6.298;2023-01-30T01:27:42;102150.22;;;6.01;79.61
61488;BME280;47351;53.326;-6.298;2023-01-30T01:30:32;102145.59;;;6.05;79.40
61488;BME280;47351;53.326;-6.298;2023-01-30T01:33:26;102147.23;;;6.07;79.09
61488;BME280;47351;53.326;-6.298;2023-01-30T01:36:18;102140.77;;;6.09;79.04
61488;BME280;47351;53.326;-6.298;2023-01-30T01:39:30;102144.93;;;6.07;78.86
61488;BME280;47351;53.326;-6.298;2023-01-30T01:42:35;102150.79;;;6.01;78.85
61488;BME280;47351;53.326;-6.298;2023-01-30T01:45:28;102157.06;;;5.93;78.83
61488;BME280;47351;53.326;-6.298;2023-01-30T01:48:19;102160.64;;;5.87;78.88
61488;BME280;47351;53.326;-6.298;2023-01-30T01:51:12;102157.73;;;5.82;78.80
61488;BME280;47351;53.326;-6.298;2023-01-30T01:54:06;102155.77;;;5.79;78.75
61488;BME280;47351;53.326;-6.298;2023-01-30T01:56:58;102160.35;;;5.77;78.57
61488;BME280;47351;53.326;-6.298;2023-01-30T01:59:51;102153.63;;;5.74;78.64
61488;BME280;47351;53.326;-6.298;2023-01-30T02:02:46;102159.16;;;5.70;78.55
61488;BME280;47351;53.326;-6.298;2023-01-30T02:05:39;102159.21;;;5.66;78.49
61488;BME280;47351;53.326;-6.298;2023-01-30T02:08:33;102165.65;;;5.62;78.49
61488;BME280;47351;53.326;-6.298;2023-01-30T02:11:25;102173.80;;;5.59;78.56
61488;BME280;47351;53.326;-6.298;2023-01-30T02:14:18;102172.63;;;5.58;78.57
61488;BME280;47351;53.326;-6.298;2023-01-30T02:17:12;102182.23;;;5.57;78.54
61488;BME280;47351;53.326;-6.298;2023-01-30T02:20:04;102182.62;;;5.56;78.40
61488;BME280;47351;53.326;-6.298;2023-01-30T02:32:35;102187.70;;;5.55;78.38
61488;BME280;47351;53.326;-6.298;2023-01-30T02:35:32;102178.19;;;5.60;78.35
61488;BME280;47351;53.326;-6.298;2023-01-30T02:38:32;102177.38;;;5.68;78.19
61488;BME280;47351;53.326;-6.298;2023-01-30T02:41:28;102175.52;;;5.75;78.01
61488;BME280;47351;53.326;-6.298;2023-01-30T02:44:25;102178.12;;;5.82;77.84
61488;BME280;47351;53.326;-6.298;2023-01-30T02:47:20;102181.68;;;5.88;77.81
61488;BME280;47351;53.326;-6.298;2023-01-30T02:50:17;102181.14;;;5.91;77.65
61488;BME280;47351;53.326;-6.298;2023-01-30T02:53:08;102179.70;;;5.91;77.55
61488;BME280;47351;53.326;-6.298;2023-01-30T02:55:59;102186.24;;;5.91;77.49
61488;BME280;47351;53.326;-6.298;2023-01-30T02:58:52;102190.11;;;5.92;77.49
61488;BME280;47351;53.326;-6.298;2023-01-30T03:01:48;102189.48;;;5.94;77.35
61488;BME280;47351;53.326;-6.298;2023-01-30T03:04:47;102187.08;;;5.96;77.43
61488;BME280;47351;53.326;-6.298;2023-01-30T03:07:45;102194.83;;;5.96;77.27
61488;BME280;47351;53.326;-6.298;2023-01-30T03:10:41;102194.36;;;5.98;77.26
61488;BME280;47351;53.326;-6.298;2023-01-30T03:13:36;102199.45;;;5.99;77.14
61488;BME280;47351;53.326;-6.298;2023-01-30T03:16:30;102202.08;;;5.99;76.99
61488;BME280;47351;53.326;-6.298;2023-01-30T03:19:22;102208.78;;;6.00;76.96
61488;BME280;47351;53.326;-6.298;2023-01-30T03:22:12;102206.25;;;6.01;76.72
61488;BME280;47351;53.326;-6.298;2023-01-30T03:25:03;102216.02;;;6.04;76.62
61488;BME280;47351;53.326;-6.298;2023-01-30T03:27:54;102223.67;;;6.06;76.66
61488;BME280;47351;53.326;-6.298;2023-01-30T03:30:45;102220.42;;;6.07;76.56
61488;BME280;47351;53.326;-6.298;2023-01-30T03:33:36;102220.56;;;6.08;76.34
61488;BME280;47351;53.326;-6.298;2023-01-30T03:36:27;102223.08;;;6.07;76.51
61488;BME280;47351;53.326;-6.298;2023-01-30T03:39:19;102224.24;;;6.05;76.47
61488;BME280;47351;53.326;-6.298;2023-01-30T03:42:09;102226.46;;;6.04;76.33
61488;BME280;47351;53.326;-6.298;2023-01-30T03:45:00;102222.98;;;6.03;76.31
61488;BME280;47351;53.326;-6.298;2023-01-30T03:47:51;102229.91;;;6.02;76.39
61488;BME280;47351;53.326;-6.298;2023-01-30T03:50:41;102230.48;;;6.01;76.23
61488;BME280;47351;53.326;-6.298;2023-01-30T03:53:32;102232.13;;;6.01;76.21
61488;BME280;47351;53.326;-6.298;2023-01-30T03:56:23;102233.96;;;6.00;76.22
61488;BME280;47351;53.326;-6.298;2023-01-30T03:59:14;102233.70;;;5.98;76.23
61488;BME280;47351;53.326;-6.298;2023-01-30T04:02:10;102238.24;;;5.96;75.99
61488;BME280;47351;53.326;-6.298;2023-01-30T04:05:02;102245.44;;;5.94;76.09
61488;BME280;47351;53.326;-6.298;2023-01-30T04:07:56;102252.89;;;5.94;76.26
61488;BME280;47351;53.326;-6.298;2023-01-30T04:10:47;102259.54;;;5.96;76.33
61488;BME280;47351;53.326;-6.298;2023-01-30T04:13:38;102252.31;;;5.98;76.22
61488;BME280;47351;53.326;-6.298;2023-01-30T04:16:29;102259.36;;;5.99;76.14
61488;BME280;47351;53.326;-6.298;2023-01-30T04:19:50;102264.08;;;5.97;76.05
61488;BME280;47351;53.326;-6.298;2023-01-30T04:22:41;102265.46;;;5.94;76.16
61488;BME280;47351;53.326;-6.298;2023-01-30T04:25:32;102261.77;;;5.91;76.27
61488;BME280;47351;53.326;-6.298;2023-01-30T04:28:28;102255.25;;;5.87;76.39
61488;BME280;47351;53.326;-6.298;2023-01-30T04:31:18;102244.71;;;5.82;76.43
61488;BME280;47351;53.326;-6.298;2023-01-30T04:34:38;102237.23;;;5.80;76.49
61488;BME280;47351;53.326;-6.298;2023-01-30T04:37:28;102239.63;;;5.78;76.70
61488;BME280;47351;53.326;-6.298;2023-01-30T04:40:19;102241.75;;;5.76;76.88
61488;BME280;47351;53.326;-6.298;2023-01-30T04:43:10;102236.27;;;5.73;77.00
61488;BME280;47351;53.326;-6.298;2023-01-30T04:46:00;102233.30;;;5.68;77.24
61488;BME280;47351;53.326;-6.298;2023-01-30T04:48:51;102231.91;;;5.65;77.42
61488;BME280;47351;53.326;-6.298;2023-01-30T04:51:41;102239.90;;;5.62;77.53
61488;BME280;47351;53.326;-6.298;2023-01-30T04:54:32;102245.95;;;5.58;77.67
61488;BME280;47351;53.326;-6.298;2023-01-30T04:57:23;102244.49;;;5.55;77.71
61488;BME280;47351;53.326;-6.298;2023-01-30T05:00:13;102242.62;;;5.54;77.83
61488;BME280;47351;53.326;-6.298;2023-01-30T05:03:10;102244.17;;;5.55;77.91
61488;BME280;47351;53.326;-6.298;2023-01-30T05:06:01;102234.83;;;5.57;78.03
61488;BME280;47351;53.326;-6.298;2023-01-30T05:08:52;102243.91;;;5.60;78.06
61488;BME280;47351;53.326;-6.298;2023-01-30T05:11:43;102243.13;;;5.61;78.05
61488;BME280;47351;53.326;-6.298;2023-01-30T05:14:34;102259.38;;;5.62;78.03
61488;BME280;47351;53.326;-6.298;2023-01-30T05:17:25;102271.79;;;5.62;78.00
61488;BME280;47351;53.326;-6.298;2023-01-30T05:20:15;102268.96;;;5.61;78.00
61488;BME280;47351;53.326;-6.298;2023-01-30T05:23:06;102261.14;;;5.62;77.99
61488;BME280;47351;53.326;-6.298;2023-01-30T05:25:56;102269.21;;;5.63;77.95
61488;BME280;47351;53.326;-6.298;2023-01-30T05:28:51;102277.23;;;5.66;77.88
61488;BME280;47351;53.326;-6.298;2023-01-30T05:31:41;102279.00;;;5.69;77.86
61488;BME280;47351;53.326;-6.298;2023-01-30T05:34:33;102277.80;;;5.71;77.74
61488;BME280;47351;53.326;-6.298;2023-01-30T05:37:23;102266.17;;;5.73;77.78
61488;BME280;47351;53.326;-6.298;2023-01-30T05:40:14;102252.98;;;5.71;77.70
61488;BME280;47351;53.326;-6.298;2023-01-30T05:43:04;102252.64;;;5.68;77.80
61488;BME280;47351;53.326;-6.298;2023-01-30T05:45:55;102257.15;;;5.64;77.77
61488;BME280;47351;53.326;-6.298;2023-01-30T05:48:46;102262.11;;;5.57;77.81
61488;BME280;47351;53.326;-6.298;2023-01-30T05:51:37;102260.59;;;5.49;77.95
61488;BME280;47351;53.326;-6.298;2023-01-30T05:54:27;102265.27;;;5.42;78.15
61488;BME280;47351;53.326;-6.298;2023-01-30T05:57:17;102272.75;;;5.35;78.30
61488;BME280;47351;53.326;-6.298;2023-01-30T06:00:09;102276.98;;;5.29;78.43
61488;BME280;47351;53.326;-6.298;2023-01-30T06:03:02;102278.23;;;5.22;78.49
61488;BME280;47351;53.326;-6.298;2023-01-30T06:05:53;102276.89;;;5.18;78.64
61488;BME280;47351;53.326;-6.298;2023-01-30T06:08:43;102277.63;;;5.14;78.80
61488;BME280;47351;53.326;-6.298;2023-01-30T06:11:34;102282.75;;;5.11;78.95
61488;BME280;47351;53.326;-6.298;2023-01-30T06:14:24;102289.17;;;5.10;79.16
61488;BME280;47351;53.326;-6.298;2023-01-30T06:17:15;102286.49;;;5.10;79.30
61488;BME280;47351;53.326;-6.298;2023-01-30T06:20:06;102285.52;;;5.12;79.28
61488;BME280;47351;53.326;-6.298;2023-01-30T06:22:57;102286.77;;;5.15;79.35
61488;BME280;47351;53.326;-6.298;2023-01-30T06:25:48;102287.49;;;5.18;79.34
61488;BME280;47351;53.326;-6.298;2023-01-30T06:28:38;102294.72;;;5.22;79.37
61488;BME280;47351;53.326;-6.298;2023-01-30T06:31:30;102293.12;;;5.22;79.25
61488;BME280;47351;53.326;-6.298;2023-01-30T06:34:20;102296.58;;;5.20;79.21
61488;BME280;47351;53.326;-6.298;2023-01-30T06:37:11;102298.51;;;5.18;79.26
61488;BME280;47351;53.326;-6.298;2023-01-30T06:40:02;102301.86;;;5.15;79.44
61488;BME280;47351;53.326;-6.298;2023-01-30T06:42:53;102304.41;;;5.10;79.50
61488;BME280;47351;53.326;-6.298;2023-01-30T06:45:43;102302.70;;;5.06;79.58
61488;BME280;47351;53.326;-6.298;2023-01-30T06:48:34;102303.66;;;5.01;79.77
61488;BME280;47351;53.326;-6.298;2023-01-30T06:51:25;102306.36;;;4.97;79.89
61488;BME280;47351;53.326;-6.298;2023-01-30T06:54:16;102304.50;;;4.92;80.06
61488;BME280;47351;53.326;-6.298;2023-01-30T06:57:06;102307.88;;;4.88;80.14
61488;BME280;47351;53.326;-6.298;2023-01-30T06:59:57;102312.45;;;4.85;80.32
61488;BME280;47351;53.326;-6.298;2023-01-30T07:02:48;102309.05;;;4.83;80.43
61488;BME280;47351;53.326;-6.298;2023-01-30T07:05:39;102311.83;;;4.81;80.63
61488;BME280;47351;53.326;-6.298;2023-01-30T07:08:29;102316.90;;;4.78;80.70
61488;BME280;47351;53.326;-6.298;2023-01-30T07:11:20;102320.73;;;4.76;80.78
61488;BME280;47351;53.326;-6.298;2023-01-30T07:14:10;102319.30;;;4.73;80.94
61488;BME280;47351;53.326;-6.298;2023-01-30T07:17:01;102326.02;;;4.70;81.13
61488;BME280;47351;53.326;-6.298;2023-01-30T07:19:51;102334.66;;;4.67;81.27
61488;BME280;47351;53.326;-6.298;2023-01-30T07:22:42;102347.37;;;4.64;81.43
61488;BME280;47351;53.326;-6.298;2023-01-30T07:25:37;102345.67;;;4.62;81.58
61488;BME280;47351;53.326;-6.298;2023-01-30T07:28:29;102353.12;;;4.62;81.71
61488;BME280;47351;53.326;-6.298;2023-01-30T07:31:19;102361.38;;;4.63;81.79
61488;BME280;47351;53.326;-6.298;2023-01-30T07:34:11;102356.61;;;4.63;81.84
61488;BME280;47351;53.326;-6.298;2023-01-30T07:37:02;102358.00;;;4.63;81.91
61488;BME280;47351;53.326;-6.298;2023-01-30T07:39:52;102360.27;;;4.64;82.05
61488;BME280;47351;53.326;-6.298;2023-01-30T07:42:43;102365.96;;;4.63;82.04
61488;BME280;47351;53.326;-6.298;2023-01-30T07:45:35;102376.41;;;4.63;82.15
61488;BME280;47351;53.326;-6.298;2023-01-30T07:48:27;102379.98;;;4.62;82.15
61488;BME280;47351;53.326;-6.298;2023-01-30T07:51:17;102383.09;;;4.60;82.14
61488;BME280;47351;53.326;-6.298;2023-01-30T07:54:07;102387.09;;;4.58;82.28
61488;BME280;47351;53.326;-6.298;2023-01-30T07:56:58;102389.92;;;4.58;82.30
61488;BME280;47351;53.326;-6.298;2023-01-30T07:59:48;102393.08;;;4.62;82.50
61488;BME280;47351;53.326;-6.298;2023-01-30T08:02:39;102395.20;;;4.69;82.55
61488;BME280;47351;53.326;-6.298;2023-01-30T08:05:29;102392.33;;;4.77;82.48
61488;BME280;47351;53.326;-6.298;2023-01-30T08:08:20;102388.91;;;4.85;82.37
61488;BME280;47351;53.326;-6.298;2023-01-30T08:11:11;102390.60;;;4.90;82.28
61488;BME280;47351;53.326;-6.298;2023-01-30T08:14:02;102393.60;;;4.93;82.17
61488;BME280;47351;53.326;-6.298;2023-01-30T08:16:52;102396.88;;;4.95;82.08
61488;BME280;47351;53.326;-6.298;2023-01-30T08:19:43;102401.78;;;4.96;81.97
61488;BME280;47351;53.326;-6.298;2023-01-30T08:22:34;102405.60;;;4.97;81.90
61488;BME280;47351;53.326;-6.298;2023-01-30T08:25:24;102407.11;;;4.99;81.85
61488;BME280;47351;53.326;-6.298;2023-01-30T08:28:15;102410.91;;;5.04;81.80
61488;BME280;47351;53.326;-6.298;2023-01-30T08:31:09;102406.96;;;5.08;81.58
61488;BME280;47351;53.326;-6.298;2023-01-30T08:34:00;102407.23;;;5.13;81.47
61488;BME280;47351;53.326;-6.298;2023-01-30T08:36:50;102400.75;;;5.19;81.37
61488;BME280;47351;53.326;-6.298;2023-01-30T08:39:43;102402.11;;;5.23;81.26
61488;BME280;47351;53.326;-6.298;2023-01-30T08:42:36;102400.73;;;5.26;81.16
61488;BME280;47351;53.326;-6.298;2023-01-30T08:45:27;102396.30;;;5.29;81.09
61488;BME280;47351;53.326;-6.298;2023-01-30T08:48:18;102397.23;;;5.32;81.06
61488;BME280;47351;53.326;-6.298;2023-01-30T08:51:08;102390.18;;;5.34;80.93
61488;BME280;47351;53.326;-6.298;2023-01-30T08:53:59;102393.27;;;5.36;80.70
61488;BME280;47351;53.326;-6.298;2023-01-30T08:56:50;102401.54;;;5.40;80.76
61488;BME280;47351;53.326;-6.298;2023-01-30T08:59:40;102400.70;;;5.46;80.64
61488;BME280;47351;53.326;-6.298;2023-01-30T09:02:31;102404.97;;;5.52;80.53
61488;BME280;47351;53.326;-6.298;2023-01-30T09:05:22;102410.42;;;5.56;80.37
61488;BME280;47351;53.326;-6.298;2023-01-30T09:08:14;102419.66;;;5.59;80.21
61488;BME280;47351;53.326;-6.298;2023-01-30T09:11:04;102421.89;;;5.60;80.13
61488;BME280;47351;53.326;-6.298;2023-01-30T09:13:57;102422.04;;;5.61;80.14
61488;BME280;47351;53.326;-6.298;2023-01-30T09:16:48;102431.76;;;5.61;80.15
61488;BME280;47351;53.326;-6.298;2023-01-30T09:19:45;102435.83;;;5.61;80.03
61488;BME280;47351;53.326;-6.298;2023-01-30T09:22:36;102437.17;;;5.63;80.07
61488;BME280;47351;53.326;-6.298;2023-01-30T09:25:27;102434.94;;;5.64;80.07
61488;BME280;47351;53.326;-6.298;2023-01-30T09:28:20;102432.39;;;5.66;80.07
61488;BME280;47351;53.326;-6.298;2023-01-30T09:31:11;102440.33;;;5.66;80.14
61488;BME280;47351;53.326;-6.298;2023-01-30T09:34:02;102442.58;;;5.67;80.18
61488;BME280;47351;53.326;-6.298;2023-01-30T09:36:53;102442.92;;;5.67;80.14
61488;BME280;47351;53.326;-6.298;2023-01-30T09:39:44;102448.17;;;5.69;80.06
61488;BME280;47351;53.326;-6.298;2023-01-30T09:42:42;102453.39;;;5.71;80.03
61488;BME280;47351;53.326;-6.298;2023-01-30T09:45:45;102457.04;;;5.72;80.07
61488;BME280;47351;53.326;-6.298;2023-01-30T09:48:41;102452.70;;;5.76;80.05
61488;BME280;47351;53.326;-6.298;2023-01-30T09:55:25;102463.35;;;6.02;79.82
61488;BME280;47351;53.326;-6.298;2023-01-30T09:58:17;102466.77;;;6.14;79.60
61488;BME280;47351;53.326;-6.298;2023-01-30T10:01:11;102468.19;;;6.20;79.31
61488;BME280;47351;53.326;-6.298;2023-01-30T10:04:10;102471.98;;;6.22;79.09
61488;BME280;47351;53.326;-6.298;2023-01-30T10:07:06;102478.42;;;6.21;79.03
61488;BME280;47351;53.326;-6.298;2023-01-30T10:09:58;102482.81;;;6.19;79.03
61488;BME280;47351;53.326;-6.298;2023-01-30T10:12:57;102485.59;;;6.17;79.01
61488;BME280;47351;53.326;-6.298;2023-01-30T10:15:52;102483.47;;;6.17;79.00
61488;BME280;47351;53.326;-6.298;2023-01-30T10:19:03;102485.68;;;6.18;78.90
61488;BME280;47351;53.326;-6.298;2023-01-30T10:22:09;102496.23;;;6.20;78.86
61488;BME280;47351;53.326;-6.298;2023-01-30T10:25:06;102496.02;;;6.20;78.66
61488;BME280;47351;53.326;-6.298;2023-01-30T10:28:04;102491.38;;;6.21;78.45
61488;BME280;47351;53.326;-6.298;2023-01-30T10:30:58;102490.77;;;6.23;78.19
61488;BME280;47351;53.326;-6.298;2023-01-30T10:33:53;102493.40;;;6.29;77.96
61488;BME280;47351;53.326;-6.298;2023-01-30T10:36:48;102499.98;;;6.41;77.77
61488;BME280;47351;53.326;-6.298;2023-01-30T10:39:43;102503.27;;;6.52;77.55
61488;BME280;47351;53.326;-6.298;2023-01-30T10:42:48;102503.43;;;6.64;77.23
61488;BME280;47351;53.326;-6.298;2023-01-30T10:45:41;102500.30;;;6.76;76.95
61488;BME280;47351;53.326;-6.298;2023-01-30T10:48:44;102503.80;;;6.89;76.58
61488;BME280;47351;53.326;-6.298;2023-01-30T10:51:41;102495.34;;;7.00;76.40
61488;BME280;47351;53.326;-6.298;2023-01-30T10:54:34;102494.36;;;7.08;76.04
61488;BME280;47351;53.326;-6.298;2023-01-30T10:57:28;102491.80;;;7.14;75.80
61488;BME280;47351;53.326;-6.298;2023-01-30T11:00:28;102489.75;;;7.22;75.63
61488;BME280;47351;53.326;-6.298;2023-01-30T11:03:23;102489.65;;;7.30;75.15
61488;BME280;47351;53.326;-6.298;2023-01-30T11:06:16;102483.52;;;7.34;74.93
61488;BME280;47351;53.326;-6.298;2023-01-30T11:09:08;102480.71;;;7.42;74.92
61488;BME280;47351;53.326;-6.298;2023-01-30T11:11:59;102481.45;;;7.50;74.58
61488;BME280;47351;53.326;-6.298;2023-01-30T11:14:50;102478.05;;;7.62;74.32
61488;BME280;47351;53.326;-6.298;2023-01-30T11:17:41;102478.97;;;7.73;74.19
61488;BME280;47351;53.326;-6.298;2023-01-30T11:20:33;102479.14;;;7.81;74.09
61488;BME280;47351;53.326;-6.298;2023-01-30T11:23:32;102485.77;;;7.86;73.87
61488;BME280;47351;53.326;-6.298;2023-01-30T11:26:24;102487.08;;;7.94;73.54
61488;BME280;47351;53.326;-6.298;2023-01-30T11:29:36;102482.48;;;8.05;73.52
61488;BME280;47351;53.326;-6.298;2023-01-30T11:32:27;102483.74;;;8.12;73.21
61488;BME280;47351;53.326;-6.298;2023-01-30T11:35:28;102485.75;;;8.17;72.92
61488;BME280;47351;53.326;-6.298;2023-01-30T11:38:21;102482.98;;;8.19;72.76
61488;BME280;47351;53.326;-6.298;2023-01-30T11:41:16;102490.89;;;8.26;72.46
61488;BME280;47351;53.326;-6.298;2023-01-30T11:44:09;102487.39;;;8.42;72.31
61488;BME280;47351;53.326;-6.298;2023-01-30T11:47:00;102484.91;;;8.53;72.07
61488;BME280;47351;53.326;-6.298;2023-01-30T11:49:53;102488.15;;;8.55;71.76
61488;BME280;47351;53.326;-6.298;2023-01-30T11:53:10;102490.38;;;8.45;72.06
61488;BME280;47351;53.326;-6.298;2023-01-30T11:56:08;102484.17;;;8.28;72.29
61488;BME280;47351;53.326;-6.298;2023-01-30T11:59:02;102482.54;;;8.28;72.32
61488;BME280;47351;53.326;-6.298;2023-01-30T12:02:02;102486.98;;;8.56;72.00
61488;BME280;47351;53.326;-6.298;2023-01-30T12:04:54;102491.06;;;8.91;71.46
61488;BME280;47351;53.326;-6.298;2023-01-30T12:07:45;102494.76;;;9.15;70.86
61488;BME280;47351;53.326;-6.298;2023-01-30T12:10:38;102496.06;;;9.19;70.23
61488;BME280;47351;53.326;-6.298;2023-01-30T12:13:30;102491.87;;;9.18;70.24
61488;BME280;47351;53.326;-6.298;2023-01-30T12:16:22;102485.94;;;9.19;70.16
61488;BME280;47351;53.326;-6.298;2023-01-30T12:19:19;102491.11;;;9.08;70.22
61488;BME280;47351;53.326;-6.298;2023-01-30T12:22:19;102490.28;;;9.15;70.63
61488;BME280;47351;53.326;-6.298;2023-01-30T12:25:14;102479.89;;;12.10;68.20
61488;BME280;47351;53.326;-6.298;2023-01-30T12:28:09;102465.65;;;15.33;64.00
61488;BME280;47351;53.326;-6.298;2023-01-30T12:31:03;102465.18;;;17.43;58.96
61488;BME280;47351;53.326;-6.298;2023-01-30T12:33:56;102463.07;;;17.20;56.15
61488;BME280;47351;53.326;-6.298;2023-01-30T12:36:49;102465.11;;;16.06;55.49
61488;BME280;47351;53.326;-6.298;2023-01-30T12:39:47;102473.48;;;15.35;56.34
61488;BME280;47351;53.326;-6.298;2023-01-30T12:42:50;102477.73;;;14.54;56.78
61488;BME280;47351;53.326;-6.298;2023-01-30T12:45:46;102474.14;;;14.27;57.89
61488;BME280;47351;53.326;-6.298;2023-01-30T12:48:43;102461.80;;;16.23;55.93
61488;BME280;47351;53.326;-6.298;2023-01-30T12:52:07;102447.73;;;18.32;53.11
61488;BME280;47351;53.326;-6.298;2023-01-30T12:55:04;102445.02;;;18.63;51.46
61488;BME280;47351;53.326;-6.298;2023-01-30T12:57:58;102446.84;;;17.72;49.76
61488;BME280;47351;53.326;-6.298;2023-01-30T13:00:53;102446.05;;;16.22;51.05
61488;BME280;47351;53.326;-6.298;2023-01-30T13:03:50;102448.86;;;14.87;52.67
61488;BME280;47351;53.326;-6.298;2023-01-30T13:06:51;102452.35;;;13.94;53.83
61488;BME280;47351;53.326;-6.298;2023-01-30T13:10:02;102462.69;;;13.46;54.88
61488;BME280;47351;53.326;-6.298;2023-01-30T13:13:13;102462.63;;;13.07;55.99
61488;BME280;47351;53.326;-6.298;2023-01-30T13:16:10;102462.70;;;12.85;57.03
61488;BME280;47351;53.326;-6.298;2023-01-30T13:19:04;102457.80;;;12.73;57.09
61488;BME280;47351;53.326;-6.298;2023-01-30T13:21:57;102456.30;;;12.42;57.52
61488;BME280;47351;53.326;-6.298;2023-01-30T13:24:57;102456.49;;;11.98;58.38
61488;BME280;47351;53.326;-6.298;2023-01-30T13:27:51;102453.73;;;11.61;58.98
61488;BME280;47351;53.326;-6.298;2023-01-30T13:30:43;102458.08;;;11.26;59.46
61488;BME280;47351;53.326;-6.298;2023-01-30T13:33:36;102452.77;;;10.86;60.57
61488;BME280;47351;53.326;-6.298;2023-01-30T13:36:28;102451.38;;;10.62;61.31
61488;BME280;47351;53.326;-6.298;2023-01-30T13:39:24;102453.67;;;10.41;61.95
61488;BME280;47351;53.326;-6.298;2023-01-30T13:42:23;102462.74;;;10.22;62.17
61488;BME280;47351;53.326;-6.298;2023-01-30T13:45:17;102465.34;;;10.01;61.94
61488;BME280;47351;53.326;-6.298;2023-01-30T13:48:13;102461.88;;;9.77;61.33
61488;BME280;47351;53.326;-6.298;2023-01-30T13:51:11;102459.39;;;9.57;61.55
61488;BME280;47351;53.326;-6.298;2023-01-30T13:54:08;102460.55;;;9.54;62.12
61488;BME280;47351;53.326;-6.298;2023-01-30T13:57:04;102459.72;;;9.55;62.65
61488;BME280;47351;53.326;-6.298;2023-01-30T14:00:03;102454.50;;;9.61;62.86
61488;BME280;47351;53.326;-6.298;2023-01-30T14:09:18;102422.02;;;10.15;62.73
61488;BME280;47351;53.326;-6.298;2023-01-30T14:12:14;102422.29;;;10.43;62.37
61488;BME280;47351;53.326;-6.298;2023-01-30T14:15:17;102423.79;;;10.54;62.02
61488;BME280;47351;53.326;-6.298;2023-01-30T14:18:17;102424.80;;;10.50;62.04
61488;BME280;47351;53.326;-6.298;2023-01-30T14:21:13;102420.62;;;10.42;62.14
61488;BME280;47351;53.326;-6.298;2023-01-30T14:24:05;102420.67;;;10.32;62.27
61488;BME280;47351;53.326;-6.298;2023-01-30T14:27:00;102419.88;;;10.15;62.22
61488;BME280;47351;53.326;-6.298;2023-01-30T14:29:52;102423.88;;;10.00;62.19
61488;BME280;47351;53.326;-6.298;2023-01-30T14:32:52;102428.51;;;9.85;62.25
61488;BME280;47351;53.326;-6.298;2023-01-30T14:35:44;102425.38;;;9.72;62.88
61488;BME280;47351;53.326;-6.298;2023-01-30T14:38:35;102428.85;;;9.63;63.37
61488;BME280;47351;53.326;-6.298;2023-01-30T14:41:26;102427.44;;;9.53;63.47
61488;BME280;47351;53.326;-6.298;2023-01-30T14:47:21;102427.08;;;9.33;64.15
61488;BME280;47351;53.326;-6.298;2023-01-30T14:50:26;102436.66;;;9.26;64.49
61488;BME280;47351;53.326;-6.298;2023-01-30T14:53:17;102440.41;;;9.23;64.72
61488;BME280;47351;53.326;-6.298;2023-01-30T14:56:08;102442.27;;;9.22;64.73
61488;BME280;47351;53.326;-6.298;2023-01-30T14:58:59;102449.06;;;9.17;64.97
61488;BME280;47351;53.326;-6.298;2023-01-30T15:02:01;102456.80;;;9.10;64.88
61488;BME280;47351;53.326;-6.298;2023-01-30T15:05:03;102455.11;;;9.01;64.63
61488;BME280;47351;53.326;-6.298;2023-01-30T15:07:54;102453.91;;;8.90;64.83
61488;BME280;47351;53.326;-6.298;2023-01-30T15:10:51;102456.02;;;8.80;64.87
61488;BME280;47351;53.326;-6.298;2023-01-30T15:13:47;102448.89;;;8.72;65.28
61488;BME280;47351;53.326;-6.298;2023-01-30T15:16:43;102447.33;;;8.69;65.52
61488;BME280;47351;53.326;-6.298;2023-01-30T15:22:59;102449.82;;;8.66;65.88
61488;BME280;47351;53.326;-6.298;2023-01-30T15:26:02;102452.41;;;8.62;65.96
61488;BME280;47351;53.326;-6.298;2023-01-30T15:29:01;102452.00;;;8.60;66.08
61488;BME280;47351;53.326;-6.298;2023-01-30T15:31:55;102451.58;;;8.59;66.24